createdAt,value
2023-03-16T00:01:06.989Z,2.31
2023-03-16T00:06:08.491Z,2.14
2023-03-16T00:11:10.047Z,2.06
2023-03-16T00:16:12.009Z,2.14
2023-03-16T00:21:15.132Z,2.22
2023-03-16T00:26:17.195Z,2.28
2023-03-16T00:31:19.051Z,2.27
2023-03-16T00:36:20.671Z,2.26
2023-03-16T00:41:22.752Z,2.33
2023-03-16T00:46:24.405Z,2.44
2023-03-16T00:51:25.963Z,2.69
2023-03-16T00:56:27.523Z,2.57
2023-03-16T01:01:29.158Z,2.71
2023-03-16T01:06:30.733Z,2.89
2023-03-16T01:11:32.484Z,3.06
2023-03-16T01:16:34.577Z,3.09
2023-03-16T01:21:36.170Z,3.13
2023-03-16T01:26:37.843Z,3.20
2023-03-16T01:31:39.428Z,3.25
2023-03-16T01:36:43.281Z,3.30
2023-03-16T01:41:46.280Z,3.25
2023-03-16T01:46:48.779Z,3.27
2023-03-16T01:52:08.838Z,3.30
2023-03-16T01:57:18.598Z,3.22
2023-03-16T02:02:23.977Z,3.17
2023-03-16T02:07:29.091Z,3.07
2023-03-16T02:12:31.033Z,3.02
2023-03-16T02:17:36.529Z,2.90
2023-03-16T02:22:47.633Z,2.89
2023-03-16T02:28:10.689Z,2.96
2023-03-16T02:33:18.802Z,2.95
2023-03-16T02:38:20.683Z,2.94
2023-03-16T02:43:34.844Z,2.91
2023-03-16T02:48:56.665Z,2.92
2023-03-16T02:53:58.819Z,3.00
2023-03-16T02:59:02.691Z,3.04
2023-03-16T03:04:05.478Z,3.07
2023-03-16T03:09:07.744Z,3.12
2023-03-16T03:14:10.321Z,3.14
2023-03-16T03:19:14.368Z,3.13
2023-03-16T03:24:16.431Z,3.14
2023-03-16T03:29:21.119Z,3.28
2023-03-16T03:34:22.708Z,3.18
2023-03-16T03:39:25.077Z,2.98
2023-03-16T03:44:28.979Z,3.14
2023-03-16T03:49:31.367Z,3.12
2023-03-16T03:54:33.335Z,3.25
2023-03-16T03:59:40.639Z,3.26
2023-03-16T04:04:54.380Z,3.29
2023-03-16T04:09:56.279Z,3.29
2023-03-16T04:15:04.428Z,3.33
2023-03-16T04:20:11.965Z,3.33
2023-03-16T04:25:16.446Z,3.54
2023-03-16T04:30:19.464Z,3.42
2023-03-16T04:35:26.152Z,3.50
2023-03-16T04:40:31.662Z,3.43
2023-03-16T04:45:41.871Z,3.41
2023-03-16T04:50:44.345Z,3.58
2023-03-16T04:55:47.484Z,3.81
2023-03-16T05:00:52.258Z,3.85
2023-03-16T05:05:59.900Z,3.82
2023-03-16T05:11:07.982Z,3.76
2023-03-16T05:16:16.061Z,3.78
2023-03-16T05:21:18.096Z,3.91
2023-03-16T05:26:28.864Z,3.92
2023-03-16T05:31:31.347Z,3.96
2023-03-16T05:36:34.121Z,3.95
2023-03-16T05:41:42.264Z,4.12
2023-03-16T05:46:51.787Z,4.02
2023-03-16T05:51:54.113Z,4.16
2023-03-16T05:56:56.822Z,4.18
2023-03-16T06:01:59.008Z,4.25
2023-03-16T06:07:01.766Z,4.24
2023-03-16T06:12:04.956Z,4.25
2023-03-16T06:17:08.314Z,4.29
2023-03-16T06:22:11.161Z,4.42
2023-03-16T06:27:13.671Z,4.41
2023-03-16T06:32:31.270Z,4.76
2023-03-16T06:37:33.018Z,4.70
2023-03-16T06:42:39.635Z,5.00
2023-03-16T06:47:45.353Z,5.13
2023-03-16T06:52:47.548Z,5.23
2023-03-16T06:57:49.282Z,5.31
2023-03-16T07:02:53.312Z,5.33
2023-03-16T07:07:56.196Z,5.53
2023-03-16T07:12:57.829Z,5.58
2023-03-16T07:17:59.512Z,5.69
2023-03-16T07:23:01.516Z,5.89
2023-03-16T07:28:04.386Z,6.16
2023-03-16T07:33:12.778Z,6.17
2023-03-16T07:38:15.455Z,6.66
2023-03-16T07:43:18.489Z,6.90
2023-03-16T07:48:24.999Z,6.91
2023-03-16T07:53:34.344Z,7.03
2023-03-16T07:58:50.275Z,7.01
2023-03-16T08:03:52.808Z,7.03
2023-03-16T08:08:54.744Z,7.11
2023-03-16T08:14:04.110Z,7.21
2023-03-16T08:19:24.625Z,7.47
2023-03-16T08:24:28.632Z,7.55
2023-03-16T08:29:32.248Z,7.64
2023-03-16T08:34:33.873Z,7.84
2023-03-16T08:39:35.746Z,7.88
2023-03-16T08:44:41.657Z,8.27
2023-03-16T08:49:43.348Z,8.50
2023-03-16T08:55:01.846Z,8.17
2023-03-16T09:00:04.934Z,7.93
2023-03-16T09:05:11.725Z,8.10
2023-03-16T09:10:13.610Z,8.28
2023-03-16T09:15:15.284Z,8.42
2023-03-16T09:20:33.516Z,8.36
2023-03-16T09:25:35.389Z,8.43
2023-03-16T09:30:37.244Z,8.69
2023-03-16T09:35:39.230Z,8.83
2023-03-16T09:40:41.221Z,8.74
2023-03-16T09:45:48.770Z,9.04
2023-03-16T09:50:51.384Z,8.98
2023-03-16T09:56:05.851Z,9.17
2023-03-16T10:01:27.043Z,9.31
2023-03-16T10:06:28.948Z,9.10
2023-03-16T10:11:57.180Z,8.84
2023-03-16T10:17:16.845Z,8.86
2023-03-16T10:22:23.388Z,8.90
2023-03-16T10:27:31.174Z,9.20
2023-03-16T10:32:34.019Z,9.31
2023-03-16T10:37:36.411Z,9.47
2023-03-16T10:42:38.896Z,10.07
2023-03-16T10:47:40.857Z,10.63
2023-03-16T10:52:46.288Z,10.83
2023-03-16T10:57:56.067Z,11.03
2023-03-16T11:02:59.783Z,11.15
2023-03-16T11:08:13.438Z,11.11
2023-03-16T11:13:20.832Z,11.91
2023-03-16T11:18:29.643Z,12.51
2023-03-16T11:23:39.085Z,12.58
2023-03-16T11:28:46.073Z,12.90
2023-03-16T11:33:48.012Z,12.60
2023-03-16T11:39:12.505Z,12.08
2023-03-16T11:44:33.081Z,12.04
2023-03-16T11:49:52.715Z,12.31
2023-03-16T11:55:17.129Z,12.88
2023-03-16T12:00:33.792Z,13.14
2023-03-16T12:05:47.902Z,13.41
2023-03-16T12:10:57.622Z,13.92
2023-03-16T12:16:49.527Z,14.09
2023-03-16T12:22:02.897Z,13.97
2023-03-16T12:27:05.853Z,13.82
2023-03-16T12:32:28.021Z,13.47
2023-03-16T12:38:18.297Z,13.05
2023-03-16T12:43:55.526Z,13.04
2023-03-16T12:48:58.629Z,13.09
2023-03-16T12:54:00.331Z,13.43
2023-03-16T12:59:05.991Z,13.26
2023-03-16T13:04:18.178Z,13.19
2023-03-16T13:09:24.154Z,13.40
2023-03-16T13:14:44.798Z,13.68
2023-03-16T13:20:21.006Z,13.76
2023-03-16T13:25:29.372Z,13.92
2023-03-16T13:30:34.353Z,14.00
2023-03-16T13:35:39.256Z,14.30
2023-03-16T13:40:46.312Z,14.40
2023-03-16T13:45:47.903Z,14.66
2023-03-16T13:50:57.000Z,14.74
2023-03-16T13:56:01.283Z,14.23
2023-03-16T14:01:05.537Z,13.88
2023-03-16T14:06:19.028Z,14.19
2023-03-16T14:11:21.539Z,14.78
2023-03-16T14:16:25.477Z,14.59
2023-03-16T14:21:30.951Z,14.69
2023-03-16T14:26:46.768Z,14.57
2023-03-16T14:31:48.350Z,14.20
2023-03-16T14:36:50.221Z,14.61
2023-03-16T14:41:52.861Z,14.84
2023-03-16T14:46:55.835Z,14.68
2023-03-16T14:52:04.625Z,14.49
2023-03-16T14:57:06.419Z,14.81
2023-03-16T15:02:16.939Z,14.66
2023-03-16T15:07:23.262Z,14.16
2023-03-16T15:12:24.768Z,14.30
2023-03-16T15:17:26.485Z,14.42
2023-03-16T15:22:34.105Z,14.40
2023-03-16T15:27:36.277Z,14.46
2023-03-16T15:32:37.807Z,14.42
2023-03-16T15:37:39.767Z,13.90
2023-03-16T15:42:41.516Z,13.97
2023-03-16T15:47:43.492Z,13.80
2023-03-16T15:53:13.315Z,13.50
2023-03-16T15:58:28.208Z,13.53
2023-03-16T16:03:30.388Z,13.22
2023-03-16T16:08:32.346Z,13.03
2023-03-16T16:13:44.078Z,12.95
2023-03-16T16:18:47.691Z,12.76
2023-03-16T16:23:49.504Z,12.88
2023-03-16T16:28:51.609Z,12.70
2023-03-16T16:33:53.140Z,12.53
2023-03-16T16:38:54.900Z,12.41
2023-03-16T16:43:57.913Z,12.50
2023-03-16T16:49:04.477Z,12.46
2023-03-16T16:54:18.626Z,12.24
2023-03-16T16:59:32.088Z,12.11
2023-03-16T17:04:34.970Z,12.09
2023-03-16T17:09:36.715Z,11.93
2023-03-16T17:14:38.509Z,11.91
2023-03-16T17:19:40.497Z,11.83
2023-03-16T17:24:42.562Z,11.73
2023-03-16T17:29:44.256Z,11.53
2023-03-16T17:34:46.190Z,11.47
2023-03-16T17:39:48.384Z,11.48
2023-03-16T17:44:52.855Z,11.36
2023-03-16T17:49:55.364Z,11.30
2023-03-16T17:54:57.204Z,11.12
2023-03-16T18:00:00.502Z,10.91
2023-03-16T18:05:02.195Z,10.90
2023-03-16T18:10:04.021Z,10.81
2023-03-16T18:15:05.965Z,10.52
2023-03-16T18:20:24.401Z,10.67
2023-03-16T18:25:37.607Z,10.67
2023-03-16T18:30:40.874Z,10.45
2023-03-16T18:35:43.395Z,10.41
2023-03-16T18:40:44.997Z,10.63
2023-03-16T18:45:47.657Z,10.39
2023-03-16T18:50:49.266Z,10.53
2023-03-16T18:55:51.451Z,10.58
2023-03-16T19:00:58.001Z,10.34
2023-03-16T19:06:01.507Z,10.41
2023-03-16T19:11:05.006Z,10.59
2023-03-16T19:16:13.978Z,10.23
2023-03-16T19:21:18.768Z,9.99
2023-03-16T19:26:20.580Z,9.90
2023-03-16T19:31:25.267Z,10.00
2023-03-16T19:36:31.893Z,9.82
2023-03-16T19:41:37.336Z,10.10
2023-03-16T19:46:39.989Z,9.81
2023-03-16T19:51:41.572Z,9.58
2023-03-16T19:56:43.150Z,9.45
2023-03-16T20:01:44.884Z,9.48
2023-03-16T20:06:49.385Z,9.36
2023-03-16T20:11:51.874Z,9.63
2023-03-16T20:16:53.571Z,9.51
2023-03-16T20:21:55.160Z,9.48
2023-03-16T20:26:56.782Z,9.50
2023-03-16T20:31:59.560Z,9.45
2023-03-16T20:37:01.314Z,9.34
2023-03-16T20:42:02.913Z,9.38
2023-03-16T20:47:04.750Z,9.44
2023-03-16T20:52:16.055Z,9.34
2023-03-16T20:57:23.332Z,9.36
2023-03-16T21:02:32.629Z,9.34
2023-03-16T21:07:34.548Z,9.55
2023-03-16T21:12:39.305Z,9.59
2023-03-16T21:17:41.689Z,9.53
2023-03-16T21:22:43.508Z,9.69
2023-03-16T21:27:46.137Z,9.85
2023-03-16T21:32:49.550Z,9.80
2023-03-16T21:37:51.081Z,9.83
2023-03-16T21:42:52.693Z,9.92
2023-03-16T21:47:54.344Z,9.81
2023-03-16T21:52:56.007Z,9.67
2023-03-16T21:57:58.921Z,9.61
2023-03-16T22:03:00.957Z,9.32
2023-03-16T22:08:12.782Z,9.42
2023-03-16T22:13:15.405Z,9.25
2023-03-16T22:18:35.615Z,9.36
2023-03-16T22:23:38.014Z,9.10
2023-03-16T22:28:39.889Z,9.15
2023-03-16T22:33:42.554Z,9.39
2023-03-16T22:38:45.540Z,9.47
2023-03-16T22:43:47.629Z,9.20
2023-03-16T22:48:50.131Z,9.33
2023-03-16T22:53:54.476Z,9.20
2023-03-16T22:59:00.712Z,9.29
2023-03-16T23:04:02.482Z,9.46
2023-03-16T23:09:04.479Z,9.41
2023-03-16T23:14:20.692Z,9.57
2023-03-16T23:19:31.151Z,9.64
2023-03-16T23:24:34.784Z,9.48
2023-03-16T23:29:36.703Z,9.33
2023-03-16T23:34:38.741Z,9.43
2023-03-16T23:39:40.498Z,9.48
2023-03-16T23:44:43.248Z,9.39
2023-03-16T23:49:44.794Z,9.42
2023-03-16T23:54:46.305Z,9.59
2023-03-16T23:59:47.874Z,9.65
